sensor_id;sensor_type;location;lat;lon;timestamp;pressure;altitude;pressure_sealevel;temperature;humidity
21240;BME280;10778;48.962;9.018;2023-02-22T00:00:14;99064.34;;;1.33;100.00
21240;BME280;10778;48.962;9.018;2023-02-22T00:02:51;99061.66;;;1.35;100.00
21240;BME280;10778;48.962;9.018;2023-02-22T00:05:22;99059.06;;;1.35;100.00
21240;BME280;10778;48.962;9.018;2023-02-22T00:07:49;99053.75;;;1.38;100.00
21240;BME280;10778;48.962;9.018;2023-02-22T00:10:16;99046.25;;;1.32;100.00
21240;BME280;10778;48.962;9.018;2023-02-22T00:12:46;99035.81;;;1.33;100.00
21240;BME280;10778;48.962;9.018;2023-02-22T00:15:17;99040.91;;;1.35;100.00
21240;BME280;10778;48.962;9.018;2023-02-22T00:17:44;99041.19;;;1.30;100.00
21240;BME280;10778;48.962;9.018;2023-02-22T00:20:12;99040.88;;;1.19;100.00
21240;BME280;10778;48.962;9.018;2023-02-22T00:22:40;99040.59;;;1.07;100.00
21240;BME280;10778;48.962;9.018;2023-02-22T00:25:08;99038.88;;;1.08;100.00
21240;BME280;10778;48.962;9.018;2023-02-22T00:27:35;99034.19;;;1.15;100.00
21240;BME280;10778;48.962;9.018;2023-02-22T00:30:03;99035.13;;;1.13;100.00
21240;BME280;10778;48.962;9.018;2023-02-22T00:32:31;99033.13;;;1.19;100.00
21240;BME280;10778;48.962;9.018;2023-02-22T00:34:57;99033.06;;;1.20;100.00
21240;BME280;10778;48.962;9.018;2023-02-22T00:37:24;99028.63;;;1.22;100.00
21240;BME280;10778;48.962;9.018;2023-02-22T00:39:50;99027.75;;;1.22;100.00
21240;BME280;10778;48.962;9.018;2023-02-22T00:42:17;99034.38;;;1.11;100.00
21240;BME280;10778;48.962;9.018;2023-02-22T00:44:44;99031.84;;;1.10;100.00
21240;BME280;10778;48.962;9.018;2023-02-22T00:47:11;99038.00;;;1.07;100.00
21240;BME280;10778;48.962;9.018;2023-02-22T00:49:37;99032.75;;;1.09;100.00
21240;BME280;10778;48.962;9.018;2023-02-22T00:52:04;99021.66;;;1.07;100.00
21240;BME280;10778;48.962;9.018;2023-02-22T00:54:30;99016.69;;;1.02;100.00
21240;BME280;10778;48.962;9.018;2023-02-22T00:56:57;99022.03;;;0.99;100.00
21240;BME280;10778;48.962;9.018;2023-02-22T00:59:23;99020.91;;;0.87;100.00
21240;BME280;10778;48.962;9.018;2023-02-22T01:01:49;99017.69;;;0.82;100.00
21240;BME280;10778;48.962;9.018;2023-02-22T01:04:15;99012.47;;;0.83;100.00
21240;BME280;10778;48.962;9.018;2023-02-22T01:06:43;99016.66;;;0.86;100.00
21240;BME280;10778;48.962;9.018;2023-02-22T01:09:09;99010.19;;;0.77;100.00
21240;BME280;10778;48.962;9.018;2023-02-22T01:11:35;99006.75;;;0.59;100.00
21240;BME280;10778;48.962;9.018;2023-02-22T01:14:01;99008.59;;;0.57;100.00
21240;BME280;10778;48.962;9.018;2023-02-22T01:16:27;99005.84;;;0.60;100.00
21240;BME280;10778;48.962;9.018;2023-02-22T01:18:53;99009.19;;;0.62;100.00
21240;BME280;10778;48.962;9.018;2023-02-22T01:21:19;99006.69;;;0.61;100.00
21240;BME280;10778;48.962;9.018;2023-02-22T01:23:45;99014.00;;;0.70;100.00
21240;BME280;10778;48.962;9.018;2023-02-22T01:26:11;99011.25;;;0.73;100.00
21240;BME280;10778;48.962;9.018;2023-02-22T01:28:37;99007.91;;;0.71;100.00
21240;BME280;10778;48.962;9.018;2023-02-22T01:31:04;98998.69;;;0.65;100.00
21240;BME280;10778;48.962;9.018;2023-02-22T01:33:30;98998.63;;;0.67;100.00
21240;BME280;10778;48.962;9.018;2023-02-22T01:35:56;98997.56;;;0.53;100.00
21240;BME280;10778;48.962;9.018;2023-02-22T01:38:23;99002.50;;;0.58;100.00
21240;BME280;10778;48.962;9.018;2023-02-22T01:40:50;98994.59;;;0.44;100.00
21240;BME280;10778;48.962;9.018;2023-02-22T01:43:24;98995.03;;;0.34;100.00
21240;BME280;10778;48.962;9.018;2023-02-22T01:46:22;98996.63;;;0.19;100.00
21240;BME280;10778;48.962;9.018;2023-02-22T01:48:58;98996.41;;;0.24;100.00
21240;BME280;10778;48.962;9.018;2023-02-22T01:51:32;98984.44;;;0.21;100.00
21240;BME280;10778;48.962;9.018;2023-02-22T01:56:44;98977.16;;;0.30;100.00
21240;BME280;10778;48.962;9.018;2023-02-22T01:59:12;98970.91;;;0.34;100.00
21240;BME280;10778;48.962;9.018;2023-02-22T02:01:39;98973.50;;;0.34;100.00
21240;BME280;10778;48.962;9.018;2023-02-22T02:04:12;98971.34;;;0.24;100.00
21240;BME280;10778;48.962;9.018;2023-02-22T02:06:38;98972.91;;;0.11;100.00
21240;BME280;10778;48.962;9.018;2023-02-22T02:09:20;98966.66;;;0.15;100.00
21240;BME280;10778;48.962;9.018;2023-02-22T02:11:50;98969.16;;;0.17;100.00
21240;BME280;10778;48.962;9.018;2023-02-22T02:14:20;98963.69;;;0.23;100.00
21240;BME280;10778;48.962;9.018;2023-02-22T02:16:48;98958.72;;;0.18;100.00
21240;BME280;10778;48.962;9.018;2023-02-22T02:20:03;98955.84;;;0.24;100.00
21240;BME280;10778;48.962;9.018;2023-02-22T02:22:42;98957.50;;;0.25;100.00
21240;BME280;10778;48.962;9.018;2023-02-22T02:33:38;98939.88;;;0.16;100.00
21240;BME280;10778;48.962;9.018;2023-02-22T02:36:13;98937.97;;;0.20;100.00
21240;BME280;10778;48.962;9.018;2023-02-22T02:38:49;98937.66;;;0.08;100.00
21240;BME280;10778;48.962;9.018;2023-02-22T02:41:26;98936.81;;;0.08;100.00
21240;BME280;10778;48.962;9.018;2023-02-22T02:43:58;98932.47;;;0.08;100.00
21240;BME280;10778;48.962;9.018;2023-02-22T02:46:36;98930.66;;;0.10;100.00
21240;BME280;10778;48.962;9.018;2023-02-22T02:49:12;98928.97;;;0.09;100.00
21240;BME280;10778;48.962;9.018;2023-02-22T02:51:43;98930.50;;;0.13;100.00
21240;BME280;10778;48.962;9.018;2023-02-22T02:54:13;98929.03;;;0.08;100.00
21240;BME280;10778;48.962;9.018;2023-02-22T02:56:40;98930.28;;;0.01;100.00
21240;BME280;10778;48.962;9.018;2023-02-22T02:59:27;98921.59;;;0.02;100.00
21240;BME280;10778;48.962;9.018;2023-02-22T03:02:17;98923.09;;;0.06;100.00
21240;BME280;10778;48.962;9.018;2023-02-22T03:07:33;98918.31;;;-0.02;100.00
21240;BME280;10778;48.962;9.018;2023-02-22T03:13:08;98910.72;;;-0.05;100.00
21240;BME280;10778;48.962;9.018;2023-02-22T03:15:43;98904.84;;;-0.09;100.00
21240;BME280;10778;48.962;9.018;2023-02-22T03:24:12;98909.69;;;-0.38;100.00
21240;BME280;10778;48.962;9.018;2023-02-22T03:26:48;98912.19;;;-0.36;100.00
21240;BME280;10778;48.962;9.018;2023-02-22T03:29:19;98902.13;;;-0.23;100.00
21240;BME280;10778;48.962;9.018;2023-02-22T03:31:51;98894.75;;;-0.13;100.00
21240;BME280;10778;48.962;9.018;2023-02-22T03:34:25;98894.50;;;-0.09;100.00
21240;BME280;10778;48.962;9.018;2023-02-22T03:36:58;98893.06;;;-0.15;100.00
21240;BME280;10778;48.962;9.018;2023-02-22T03:39:26;98888.56;;;-0.11;100.00
21240;BME280;10778;48.962;9.018;2023-02-22T03:42:03;98891.03;;;-0.08;100.00
21240;BME280;10778;48.962;9.018;2023-02-22T03:44:34;98891.78;;;-0.06;100.00
21240;BME280;10778;48.962;9.018;2023-02-22T03:47:06;98887.53;;;-0.07;100.00
21240;BME280;10778;48.962;9.018;2023-02-22T03:49:37;98892.44;;;-0.02;100.00
21240;BME280;10778;48.962;9.018;2023-02-22T03:52:06;98887.16;;;0.01;100.00
21240;BME280;10778;48.962;9.018;2023-02-22T03:54:33;98895.94;;;-0.03;100.00
21240;BME280;10778;48.962;9.018;2023-02-22T03:57:09;98893.75;;;-0.11;100.00
21240;BME280;10778;48.962;9.018;2023-02-22T03:59:39;98894.44;;;-0.07;100.00
21240;BME280;10778;48.962;9.018;2023-02-22T04:02:05;98892.06;;;-0.12;100.00
21240;BME280;10778;48.962;9.018;2023-02-22T04:04:31;98886.63;;;-0.06;100.00
21240;BME280;10778;48.962;9.018;2023-02-22T04:06:58;98891.84;;;-0.07;100.00
21240;BME280;10778;48.962;9.018;2023-02-22T04:09:26;98890.66;;;0.00;100.00
21240;BME280;10778;48.962;9.018;2023-02-22T04:11:52;98898.09;;;0.06;100.00
21240;BME280;10778;48.962;9.018;2023-02-22T04:14:19;98892.06;;;0.06;100.00
21240;BME280;10778;48.962;9.018;2023-02-22T04:16:45;98891.03;;;0.10;100.00
21240;BME280;10778;48.962;9.018;2023-02-22T04:19:11;98892.69;;;0.11;100.00
21240;BME280;10778;48.962;9.018;2023-02-22T04:21:38;98890.19;;;0.09;100.00
21240;BME280;10778;48.962;9.018;2023-02-22T04:24:07;98893.00;;;0.05;100.00
21240;BME280;10778;48.962;9.018;2023-02-22T04:26:33;98890.41;;;0.05;100.00
21240;BME280;10778;48.962;9.018;2023-02-22T04:29:01;98890.41;;;0.05;100.00
21240;BME280;10778;48.962;9.018;2023-02-22T04:31:34;98889.25;;;0.10;100.00
21240;BME280;10778;48.962;9.018;2023-02-22T04:34:01;98886.91;;;0.06;100.00
21240;BME280;10778;48.962;9.018;2023-02-22T04:36:31;98894.53;;;0.09;100.00
21240;BME280;10778;48.962;9.018;2023-02-22T04:38:59;98893.63;;;0.10;100.00
21240;BME280;10778;48.962;9.018;2023-02-22T04:41:27;98891.16;;;0.07;100.00
21240;BME280;10778;48.962;9.018;2023-02-22T04:43:53;98887.91;;;0.03;100.00
21240;BME280;10778;48.962;9.018;2023-02-22T04:46:21;98891.47;;;0.01;100.00
21240;BME280;10778;48.962;9.018;2023-02-22T04:48:48;98883.78;;;-0.01;100.00
21240;BME280;10778;48.962;9.018;2023-02-22T04:51:16;98885.47;;;0.00;100.00
21240;BME280;10778;48.962;9.018;2023-02-22T04:53:54;98884.41;;;0.04;100.00
21240;BME280;10778;48.962;9.018;2023-02-22T04:56:21;98880.91;;;0.05;100.00
21240;BME280;10778;48.962;9.018;2023-02-22T04:58:47;98879.91;;;0.08;100.00
21240;BME280;10778;48.962;9.018;2023-02-22T05:01:14;98879.06;;;0.07;100.00
21240;BME280;10778;48.962;9.018;2023-02-22T05:03:42;98876.94;;;-0.02;100.00
21240;BME280;10778;48.962;9.018;2023-02-22T05:06:08;98880.59;;;-0.06;100.00
21240;BME280;10778;48.962;9.018;2023-02-22T05:08:34;98885.31;;;-0.15;100.00
21240;BME280;10778;48.962;9.018;2023-02-22T05:11:00;98878.31;;;-0.12;100.00
21240;BME280;10778;48.962;9.018;2023-02-22T05:13:26;98876.34;;;-0.07;100.00
21240;BME280;10778;48.962;9.018;2023-02-22T05:15:52;98873.81;;;-0.09;100.00
21240;BME280;10778;48.962;9.018;2023-02-22T05:18:19;98872.00;;;-0.07;100.00
21240;BME280;10778;48.962;9.018;2023-02-22T05:20:45;98872.78;;;-0.05;100.00
21240;BME280;10778;48.962;9.018;2023-02-22T05:23:11;98870.09;;;-0.03;100.00
21240;BME280;10778;48.962;9.018;2023-02-22T05:25:37;98872.59;;;-0.02;100.00
21240;BME280;10778;48.962;9.018;2023-02-22T05:28:07;98870.94;;;-0.03;100.00
21240;BME280;10778;48.962;9.018;2023-02-22T05:30:36;98862.34;;;-0.03;100.00
21240;BME280;10778;48.962;9.018;2023-02-22T05:33:05;98876.13;;;-0.03;100.00
21240;BME280;10778;48.962;9.018;2023-02-22T05:35:31;98867.88;;;-0.11;100.00
21240;BME280;10778;48.962;9.018;2023-02-22T05:37:57;98872.13;;;-0.10;100.00
21240;BME280;10778;48.962;9.018;2023-02-22T05:40:27;98863.47;;;-0.09;100.00
21240;BME280;10778;48.962;9.018;2023-02-22T05:42:54;98865.22;;;-0.09;100.00
21240;BME280;10778;48.962;9.018;2023-02-22T05:45:23;98862.72;;;-0.11;100.00
21240;BME280;10778;48.962;9.018;2023-02-22T05:47:50;98858.44;;;-0.12;100.00
21240;BME280;10778;48.962;9.018;2023-02-22T05:50:17;98865.22;;;-0.09;100.00
21240;BME280;10778;48.962;9.018;2023-02-22T05:52:45;98861.72;;;-0.08;100.00
21240;BME280;10778;48.962;9.018;2023-02-22T05:55:13;98864.31;;;-0.08;100.00
21240;BME280;10778;48.962;9.018;2023-02-22T05:57:40;98866.91;;;-0.08;100.00
21240;BME280;10778;48.962;9.018;2023-02-22T06:00:09;98860.88;;;-0.09;100.00
21240;BME280;10778;48.962;9.018;2023-02-22T06:02:38;98866.22;;;-0.12;100.00
21240;BME280;10778;48.962;9.018;2023-02-22T06:05:05;98859.47;;;-0.15;100.00
21240;BME280;10778;48.962;9.018;2023-02-22T06:07:31;98861.88;;;-0.11;100.00
21240;BME280;10778;48.962;9.018;2023-02-22T06:09:57;98859.38;;;-0.13;100.00
21240;BME280;10778;48.962;9.018;2023-02-22T06:12:23;98864.53;;;-0.13;100.00
21240;BME280;10778;48.962;9.018;2023-02-22T06:14:49;98867.06;;;-0.11;100.00
21240;BME280;10778;48.962;9.018;2023-02-22T06:17:15;98863.63;;;-0.12;100.00
21240;BME280;10778;48.962;9.018;2023-02-22T06:19:42;98869.88;;;-0.16;100.00
21240;BME280;10778;48.962;9.018;2023-02-22T06:22:15;98862.59;;;-0.25;100.00
21240;BME280;10778;48.962;9.018;2023-02-22T06:24:42;98879.44;;;-0.18;100.00
21240;BME280;10778;48.962;9.018;2023-02-22T06:27:08;98872.28;;;-0.13;100.00
21240;BME280;10778;48.962;9.018;2023-02-22T06:29:34;98882.63;;;-0.13;100.00
21240;BME280;10778;48.962;9.018;2023-02-22T06:32:00;98876.34;;;-0.07;100.00
21240;BME280;10778;48.962;9.018;2023-02-22T06:34:26;98896.09;;;-0.06;100.00
21240;BME280;10778;48.962;9.018;2023-02-22T06:36:52;98890.03;;;-0.05;100.00
21240;BME280;10778;48.962;9.018;2023-02-22T06:39:18;98896.44;;;0.05;100.00
21240;BME280;10778;48.962;9.018;2023-02-22T06:41:45;98896.88;;;0.13;100.00
21240;BME280;10778;48.962;9.018;2023-02-22T06:44:13;98895.81;;;0.18;100.00
21240;BME280;10778;48.962;9.018;2023-02-22T06:46:47;98898.16;;;0.22;100.00
21240;BME280;10778;48.962;9.018;2023-02-22T06:49:14;98899.38;;;0.15;100.00
21240;BME280;10778;48.962;9.018;2023-02-22T06:51:40;98897.94;;;0.09;100.00
21240;BME280;10778;48.962;9.018;2023-02-22T06:54:06;98901.88;;;0.17;100.00
21240;BME280;10778;48.962;9.018;2023-02-22T06:56:32;98910.03;;;0.26;100.00
21240;BME280;10778;48.962;9.018;2023-02-22T06:58:58;98909.16;;;0.44;100.00
21240;BME280;10778;48.962;9.018;2023-02-22T07:01:24;98901.88;;;0.52;100.00
21240;BME280;10778;48.962;9.018;2023-02-22T07:03:49;98907.31;;;0.63;100.00
21240;BME280;10778;48.962;9.018;2023-02-22T07:06:15;98906.81;;;1.22;100.00
21240;BME280;10778;48.962;9.018;2023-02-22T07:08:41;98905.34;;;1.95;100.00
21240;BME280;10778;48.962;9.018;2023-02-22T07:11:07;98898.03;;;2.47;98.44
21240;BME280;10778;48.962;9.018;2023-02-22T07:13:33;98898.53;;;2.83;94.86
21240;BME280;10778;48.962;9.018;2023-02-22T07:15:59;98901.69;;;3.30;91.54
21240;BME280;10778;48.962;9.018;2023-02-22T07:18:25;98909.63;;;3.56;92.10
21240;BME280;10778;48.962;9.018;2023-02-22T07:20:51;98910.56;;;3.13;92.13
21240;BME280;10778;48.962;9.018;2023-02-22T07:23:17;98913.38;;;2.95;92.73
21240;BME280;10778;48.962;9.018;2023-02-22T07:25:44;98918.19;;;3.02;94.73
21240;BME280;10778;48.962;9.018;2023-02-22T07:28:10;98915.50;;;3.03;94.27
21240;BME280;10778;48.962;9.018;2023-02-22T07:30:36;98914.84;;;3.14;94.03
21240;BME280;10778;48.962;9.018;2023-02-22T07:33:05;98911.09;;;3.60;92.89
21240;BME280;10778;48.962;9.018;2023-02-22T07:35:33;98915.97;;;3.79;90.53
21240;BME280;10778;48.962;9.018;2023-02-22T07:38:04;98922.69;;;3.69;91.10
21240;BME280;10778;48.962;9.018;2023-02-22T07:40:33;98915.16;;;3.64;91.32
21240;BME280;10778;48.962;9.018;2023-02-22T07:43:20;98916.97;;;3.77;91.20
21240;BME280;10778;48.962;9.018;2023-02-22T07:45:48;98918.38;;;4.49;90.51
21240;BME280;10778;48.962;9.018;2023-02-22T07:48:16;98909.09;;;5.58;85.02
21240;BME280;10778;48.962;9.018;2023-02-22T07:50:43;98901.84;;;6.10;80.86
21240;BME280;10778;48.962;9.018;2023-02-22T07:53:21;98902.56;;;6.12;80.92
21240;BME280;10778;48.962;9.018;2023-02-22T07:55:48;98896.94;;;6.98;77.30
21240;BME280;10778;48.962;9.018;2023-02-22T07:58:20;98898.78;;;7.86;73.41
21240;BME280;10778;48.962;9.018;2023-02-22T08:00:46;98891.31;;;8.66;70.90
21240;BME280;10778;48.962;9.018;2023-02-22T08:03:14;98898.22;;;8.67;69.83
21240;BME280;10778;48.962;9.018;2023-02-22T08:05:45;98887.97;;;9.86;68.40
21240;BME280;10778;48.962;9.018;2023-02-22T08:08:12;98884.03;;;10.59;66.31
21240;BME280;10778;48.962;9.018;2023-02-22T08:10:41;98884.88;;;10.30;64.84
21240;BME280;10778;48.962;9.018;2023-02-22T08:13:07;98895.59;;;9.08;69.43
21240;BME280;10778;48.962;9.018;2023-02-22T08:15:39;98893.38;;;9.04;71.40
21240;BME280;10778;48.962;9.018;2023-02-22T08:18:14;98891.84;;;9.72;68.72
21240;BME280;10778;48.962;9.018;2023-02-22T08:20:42;98884.09;;;9.90;68.62
21240;BME280;10778;48.962;9.018;2023-02-22T08:23:10;98875.38;;;10.76;65.45
21240;BME280;10778;48.962;9.018;2023-02-22T08:25:36;98885.34;;;10.05;68.19
21240;BME280;10778;48.962;9.018;2023-02-22T08:28:05;98881.25;;;10.50;67.13
21240;BME280;10778;48.962;9.018;2023-02-22T08:30:34;98889.50;;;9.68;69.19
21240;BME280;10778;48.962;9.018;2023-02-22T08:33:02;98872.97;;;10.45;67.06
21240;BME280;10778;48.962;9.018;2023-02-22T08:35:30;98880.69;;;10.66;66.44
21240;BME280;10778;48.962;9.018;2023-02-22T08:38:00;98878.25;;;10.83;72.86
21240;BME280;10778;48.962;9.018;2023-02-22T08:40:29;98881.31;;;10.21;69.26
21240;BME280;10778;48.962;9.018;2023-02-22T08:46:43;98879.72;;;8.69;75.89
21240;BME280;10778;48.962;9.018;2023-02-22T08:49:09;98878.06;;;8.99;74.21
21240;BME280;10778;48.962;9.018;2023-02-22T08:51:36;98879.81;;;9.49;73.32
21240;BME280;10778;48.962;9.018;2023-02-22T08:54:02;98870.50;;;10.24;74.68
21240;BME280;10778;48.962;9.018;2023-02-22T08:56:29;98872.91;;;10.65;68.08
21240;BME280;10778;48.962;9.018;2023-02-22T08:58:55;98867.78;;;11.47;67.21
21240;BME280;10778;48.962;9.018;2023-02-22T09:01:24;98865.47;;;11.16;66.54
21240;BME280;10778;48.962;9.018;2023-02-22T09:03:50;98864.91;;;12.74;61.86
21240;BME280;10778;48.962;9.018;2023-02-22T09:06:17;98863.69;;;12.60;59.65
21240;BME280;10778;48.962;9.018;2023-02-22T09:08:43;98861.53;;;12.29;61.04
21240;BME280;10778;48.962;9.018;2023-02-22T09:11:09;98859.00;;;12.46;59.23
21240;BME280;10778;48.962;9.018;2023-02-22T09:13:35;98852.47;;;13.69;58.03
21240;BME280;10778;48.962;9.018;2023-02-22T09:16:01;98843.06;;;13.58;57.56
21240;BME280;10778;48.962;9.018;2023-02-22T09:18:27;98853.03;;;12.35;59.98
21240;BME280;10778;48.962;9.018;2023-02-22T09:20:53;98855.81;;;11.71;61.83
21240;BME280;10778;48.962;9.018;2023-02-22T09:23:20;98855.06;;;12.76;59.82
21240;BME280;10778;48.962;9.018;2023-02-22T09:25:47;98847.69;;;13.89;57.13
21240;BME280;10778;48.962;9.018;2023-02-22T09:28:14;98849.00;;;13.77;57.18
21240;BME280;10778;48.962;9.018;2023-02-22T09:30:41;98843.75;;;13.69;57.47
21240;BME280;10778;48.962;9.018;2023-02-22T09:33:16;98844.72;;;13.68;57.30
21240;BME280;10778;48.962;9.018;2023-02-22T09:35:44;98839.13;;;13.03;60.24
21240;BME280;10778;48.962;9.018;2023-02-22T09:38:17;98837.84;;;13.15;59.26
21240;BME280;10778;48.962;9.018;2023-02-22T09:40:53;98848.03;;;12.59;61.91
21240;BME280;10778;48.962;9.018;2023-02-22T09:46:20;98840.66;;;11.37;67.90
21240;BME280;10778;48.962;9.018;2023-02-22T09:48:55;98841.53;;;12.18;65.73
21240;BME280;10778;48.962;9.018;2023-02-22T09:51:26;98845.56;;;12.04;66.64
21240;BME280;10778;48.962;9.018;2023-02-22T09:53:57;98831.69;;;12.55;64.18
21240;BME280;10778;48.962;9.018;2023-02-22T09:56:25;98838.91;;;12.88;62.08
21240;BME280;10778;48.962;9.018;2023-02-22T09:58:59;98829.72;;;13.00;63.54
21240;BME280;10778;48.962;9.018;2023-02-22T10:01:31;98834.88;;;12.67;64.66
21240;BME280;10778;48.962;9.018;2023-02-22T10:06:37;98829.84;;;12.47;66.64
21240;BME280;10778;48.962;9.018;2023-02-22T10:09:08;98819.59;;;13.55;62.14
21240;BME280;10778;48.962;9.018;2023-02-22T10:11:48;98822.59;;;13.69;62.07
21240;BME280;10778;48.962;9.018;2023-02-22T10:14:35;98824.22;;;14.03;60.06
21240;BME280;10778;48.962;9.018;2023-02-22T10:17:27;98816.22;;;14.36;58.75
21240;BME280;10778;48.962;9.018;2023-02-22T10:20:06;98814.38;;;14.45;58.75
21240;BME280;10778;48.962;9.018;2023-02-22T10:23:03;98815.91;;;14.31;57.55
21240;BME280;10778;48.962;9.018;2023-02-22T10:25:35;98806.69;;;14.67;55.66
21240;BME280;10778;48.962;9.018;2023-02-22T10:28:16;98804.13;;;14.42;59.18
21240;BME280;10778;48.962;9.018;2023-02-22T10:30:52;98801.16;;;14.36;58.80
21240;BME280;10778;48.962;9.018;2023-02-22T10:33:23;98808.00;;;14.14;58.46
21240;BME280;10778;48.962;9.018;2023-02-22T10:35:53;98803.66;;;14.38;57.20
21240;BME280;10778;48.962;9.018;2023-02-22T10:38:25;98798.59;;;14.68;57.05
21240;BME280;10778;48.962;9.018;2023-02-22T10:41:28;98795.81;;;14.53;58.96
21240;BME280;10778;48.962;9.018;2023-02-22T10:43:55;98794.09;;;14.69;56.79
21240;BME280;10778;48.962;9.018;2023-02-22T10:46:22;98793.91;;;14.78;57.27
21240;BME280;10778;48.962;9.018;2023-02-22T10:48:56;98785.88;;;15.27;54.47
21240;BME280;10778;48.962;9.018;2023-02-22T10:51:27;98787.13;;;16.01;53.80
21240;BME280;10778;48.962;9.018;2023-02-22T10:54:17;98776.56;;;15.92;54.44
21240;BME280;10778;48.962;9.018;2023-02-22T10:56:49;98782.50;;;15.33;55.96
21240;BME280;10778;48.962;9.018;2023-02-22T10:59:26;98781.25;;;15.67;54.68
21240;BME280;10778;48.962;9.018;2023-02-22T11:01:53;98780.50;;;15.35;55.80
21240;BME280;10778;48.962;9.018;2023-02-22T11:04:20;98784.34;;;15.09;57.18
21240;BME280;10778;48.962;9.018;2023-02-22T11:07:05;98773.72;;;15.56;55.97
21240;BME280;10778;48.962;9.018;2023-02-22T11:09:44;98777.59;;;16.37;53.43
21240;BME280;10778;48.962;9.018;2023-02-22T11:12:18;98779.06;;;15.71;54.92
21240;BME280;10778;48.962;9.018;2023-02-22T11:14:44;98772.44;;;15.28;57.79
21240;BME280;10778;48.962;9.018;2023-02-22T11:17:15;98774.66;;;14.93;58.72
21240;BME280;10778;48.962;9.018;2023-02-22T11:19:47;98771.78;;;15.26;56.72
21240;BME280;10778;48.962;9.018;2023-02-22T11:22:53;98770.66;;;15.67;56.28
21240;BME280;10778;48.962;9.018;2023-02-22T11:25:24;98763.44;;;15.76;56.55
21240;BME280;10778;48.962;9.018;2023-02-22T11:27:51;98759.56;;;16.47;53.69
21240;BME280;10778;48.962;9.018;2023-02-22T11:30:30;98760.88;;;16.06;54.58
21240;BME280;10778;48.962;9.018;2023-02-22T11:33:16;98756.72;;;16.03;57.22
21240;BME280;10778;48.962;9.018;2023-02-22T11:36:00;98746.75;;;15.90;56.70
21240;BME280;10778;48.962;9.018;2023-02-22T11:38:29;98752.81;;;15.61;55.66
21240;BME280;10778;48.962;9.018;2023-02-22T11:41:12;98745.59;;;15.08;57.24
21240;BME280;10778;48.962;9.018;2023-02-22T11:43:40;98740.63;;;15.52;58.26
21240;BME280;10778;48.962;9.018;2023-02-22T11:46:15;98741.22;;;14.92;59.89
21240;BME280;10778;48.962;9.018;2023-02-22T11:48:55;98741.28;;;14.84;60.89
21240;BME280;10778;48.962;9.018;2023-02-22T11:51:31;98739.56;;;14.91;61.11
21240;BME280;10778;48.962;9.018;2023-02-22T11:54:12;98725.41;;;15.07;61.83
21240;BME280;10778;48.962;9.018;2023-02-22T11:57:08;98725.56;;;15.29;61.18
21240;BME280;10778;48.962;9.018;2023-02-22T12:02:30;98716.53;;;15.15;60.46
21240;BME280;10778;48.962;9.018;2023-02-22T12:05:14;98712.31;;;15.05;60.78
21240;BME280;10778;48.962;9.018;2023-02-22T12:11:12;98716.41;;;14.53;62.24
21240;BME280;10778;48.962;9.018;2023-02-22T12:13:53;98709.88;;;14.32;63.51
21240;BME280;10778;48.962;9.018;2023-02-22T12:20:17;98705.13;;;14.59;63.85
21240;BME280;10778;48.962;9.018;2023-02-22T12:25:30;98704.44;;;14.65;63.56
21240;BME280;10778;48.962;9.018;2023-02-22T12:28:07;98701.00;;;14.57;62.75
21240;BME280;10778;48.962;9.018;2023-02-22T12:30:38;98694.19;;;14.94;62.00
21240;BME280;10778;48.962;9.018;2023-02-22T12:33:13;98691.66;;;14.69;61.44
21240;BME280;10778;48.962;9.018;2023-02-22T12:35:44;98696.69;;;14.64;63.54
21240;BME280;10778;48.962;9.018;2023-02-22T12:38:27;98692.97;;;14.82;62.49
21240;BME280;10778;48.962;9.018;2023-02-22T12:41:21;98697.38;;;14.89;61.42
21240;BME280;10778;48.962;9.018;2023-02-22T12:46:29;98688.97;;;15.62;59.59
21240;BME280;10778;48.962;9.018;2023-02-22T12:51:51;98680.50;;;16.12;57.62
21240;BME280;10778;48.962;9.018;2023-02-22T12:54:32;98686.69;;;15.74;60.20
21240;BME280;10778;48.962;9.018;2023-02-22T12:57:10;98685.81;;;16.12;58.43
21240;BME280;10778;48.962;9.018;2023-02-22T12:59:40;98681.56;;;16.48;55.21
21240;BME280;10778;48.962;9.018;2023-02-22T13:04:42;98677.81;;;16.42;57.02
21240;BME280;10778;48.962;9.018;2023-02-22T13:10:03;98669.16;;;16.18;55.13
21240;BME280;10778;48.962;9.018;2023-02-22T13:20:28;98676.41;;;15.95;57.96
21240;BME280;10778;48.962;9.018;2023-02-22T13:23:10;98663.00;;;15.88;57.85
21240;BME280;10778;48.962;9.018;2023-02-22T13:25:44;98680.91;;;15.41;57.56
21240;BME280;10778;48.962;9.018;2023-02-22T13:28:30;98663.22;;;15.18;58.55
21240;BME280;10778;48.962;9.018;2023-02-22T13:36:27;98671.97;;;14.95;60.50
21240;BME280;10778;48.962;9.018;2023-02-22T13:52:17;98654.94;;;16.41;55.91
21240;BME280;10778;48.962;9.018;2023-02-22T13:54:48;98656.81;;;15.96;55.90
21240;BME280;10778;48.962;9.018;2023-02-22T13:57:37;98657.91;;;15.86;57.31
21240;BME280;10778;48.962;9.018;2023-02-22T14:05:53;98661.38;;;14.95;60.04
21240;BME280;10778;48.962;9.018;2023-02-22T14:10:59;98658.25;;;14.68;60.21
21240;BME280;10778;48.962;9.018;2023-02-22T14:13:30;98663.50;;;14.76;60.90
21240;BME280;10778;48.962;9.018;2023-02-22T14:26:30;98648.63;;;14.44;60.32
21240;BME280;10778;48.962;9.018;2023-02-22T14:31:57;98652.06;;;15.22;58.79
21240;BME280;10778;48.962;9.018;2023-02-22T14:34:50;98656.13;;;15.33;58.69
21240;BME280;10778;48.962;9.018;2023-02-22T14:37:21;98655.22;;;15.41;58.59
21240;BME280;10778;48.962;9.018;2023-02-22T14:39:52;98653.75;;;15.39;58.59
21240;BME280;10778;48.962;9.018;2023-02-22T14:42:33;98655.91;;;15.20;58.36
21240;BME280;10778;48.962;9.018;2023-02-22T14:56:06;98660.25;;;14.66;59.13
21240;BME280;10778;48.962;9.018;2023-02-22T14:58:42;98657.56;;;14.74;59.05
21240;BME280;10778;48.962;9.018;2023-02-22T15:01:26;98651.69;;;14.56;59.27
21240;BME280;10778;48.962;9.018;2023-02-22T15:03:55;98654.94;;;14.43;60.39
21240;BME280;10778;48.962;9.018;2023-02-22T15:06:25;98648.94;;;14.17;58.65
21240;BME280;10778;48.962;9.018;2023-02-22T15:09:21;98659.53;;;14.09;58.23
21240;BME280;10778;48.962;9.018;2023-02-22T15:11:51;98657.66;;;13.78;59.60
21240;BME280;10778;48.962;9.018;2023-02-22T15:14:24;98656.00;;;13.85;58.76